sensor_id;sensor_type;location;lat;lon;timestamp;temperature;humidity
42743;DHT22;28397;44.552;-0.848;2023-07-31T00:00:14;17.70;99.90
42743;DHT22;28397;44.552;-0.848;2023-07-31T00:02:40;17.90;99.90
42743;DHT22;28397;44.552;-0.848;2023-07-31T00:05:08;17.90;99.90
42743;DHT22;28397;44.552;-0.848;2023-07-31T00:07:33;18.10;99.90
42743;DHT22;28397;44.552;-0.848;2023-07-31T00:09:59;18.00;99.90
42743;DHT22;28397;44.552;-0.848;2023-07-31T00:12:25;18.00;99.90
42743;DHT22;28397;44.552;-0.848;2023-07-31T00:14:51;18.00;99.90
42743;DHT22;28397;44.552;-0.848;2023-07-31T00:17:17;18.00;99.90
42743;DHT22;28397;44.552;-0.848;2023-07-31T00:19:42;18.00;99.90
42743;DHT22;28397;44.552;-0.848;2023-07-31T00:22:08;18.00;99.90
42743;DHT22;28397;44.552;-0.848;2023-07-31T00:24:34;17.90;99.90
42743;DHT22;28397;44.552;-0.848;2023-07-31T00:26:59;17.80;99.90
42743;DHT22;28397;44.552;-0.848;2023-07-31T00:29:25;17.60;99.90
42743;DHT22;28397;44.552;-0.848;2023-07-31T00:31:51;17.40;99.90
42743;DHT22;28397;44.552;-0.848;2023-07-31T00:34:16;17.30;99.90
42743;DHT22;28397;44.552;-0.848;2023-07-31T00:36:42;17.20;99.90
42743;DHT22;28397;44.552;-0.848;2023-07-31T00:39:07;17.10;99.90
42743;DHT22;28397;44.552;-0.848;2023-07-31T00:41:33;17.00;99.90
42743;DHT22;28397;44.552;-0.848;2023-07-31T00:43:59;17.00;99.90
42743;DHT22;28397;44.552;-0.848;2023-07-31T00:46:24;16.90;99.90
42743;DHT22;28397;44.552;-0.848;2023-07-31T00:48:50;17.00;99.90
42743;DHT22;28397;44.552;-0.848;2023-07-31T00:51:16;16.90;99.90
42743;DHT22;28397;44.552;-0.848;2023-07-31T00:53:43;16.80;99.90
42743;DHT22;28397;44.552;-0.848;2023-07-31T00:56:10;16.70;99.90
42743;DHT22;28397;44.552;-0.848;2023-07-31T00:58:36;16.70;99.90
42743;DHT22;28397;44.552;-0.848;2023-07-31T01:01:02;16.70;99.90
42743;DHT22;28397;44.552;-0.848;2023-07-31T01:03:27;16.60;99.90
42743;DHT22;28397;44.552;-0.848;2023-07-31T01:08:49;16.60;99.90
42743;DHT22;28397;44.552;-0.848;2023-07-31T01:11:25;16.50;99.90
42743;DHT22;28397;44.552;-0.848;2023-07-31T01:13:54;16.60;99.90
42743;DHT22;28397;44.552;-0.848;2023-07-31T01:16:20;16.90;99.90
42743;DHT22;28397;44.552;-0.848;2023-07-31T01:18:45;17.00;99.90
42743;DHT22;28397;44.552;-0.848;2023-07-31T01:21:25;17.10;99.90
42743;DHT22;28397;44.552;-0.848;2023-07-31T01:26:38;17.00;99.90
42743;DHT22;28397;44.552;-0.848;2023-07-31T01:29:23;16.90;99.90
42743;DHT22;28397;44.552;-0.848;2023-07-31T01:31:53;17.00;99.90
42743;DHT22;28397;44.552;-0.848;2023-07-31T01:34:21;17.00;99.90
42743;DHT22;28397;44.552;-0.848;2023-07-31T01:36:47;17.00;99.90
42743;DHT22;28397;44.552;-0.848;2023-07-31T01:39:13;17.00;99.90
42743;DHT22;28397;44.552;-0.848;2023-07-31T01:41:41;16.90;99.90
42743;DHT22;28397;44.552;-0.848;2023-07-31T01:44:06;16.70;99.90
42743;DHT22;28397;44.552;-0.848;2023-07-31T01:46:32;16.40;99.90
42743;DHT22;28397;44.552;-0.848;2023-07-31T01:48:58;16.30;99.90
42743;DHT22;28397;44.552;-0.848;2023-07-31T01:51:23;16.20;99.90
42743;DHT22;28397;44.552;-0.848;2023-07-31T01:53:49;16.10;99.90
42743;DHT22;28397;44.552;-0.848;2023-07-31T01:56:15;16.10;99.90
42743;DHT22;28397;44.552;-0.848;2023-07-31T01:58:40;16.00;99.90
42743;DHT22;28397;44.552;-0.848;2023-07-31T02:01:06;16.00;99.90
42743;DHT22;28397;44.552;-0.848;2023-07-31T02:03:32;16.00;99.90
42743;DHT22;28397;44.552;-0.848;2023-07-31T02:05:57;16.00;99.90
42743;DHT22;28397;44.552;-0.848;2023-07-31T02:08:23;15.90;99.90
42743;DHT22;28397;44.552;-0.848;2023-07-31T02:10:49;15.80;99.90
42743;DHT22;28397;44.552;-0.848;2023-07-31T02:13:14;15.80;99.90
42743;DHT22;28397;44.552;-0.848;2023-07-31T02:15:40;15.80;99.90
42743;DHT22;28397;44.552;-0.848;2023-07-31T02:18:06;15.90;99.90
42743;DHT22;28397;44.552;-0.848;2023-07-31T02:20:34;15.90;99.90
42743;DHT22;28397;44.552;-0.848;2023-07-31T02:23:00;15.80;99.90
42743;DHT22;28397;44.552;-0.848;2023-07-31T02:25:26;15.70;99.90
42743;DHT22;28397;44.552;-0.848;2023-07-31T02:27:51;15.70;99.90
42743;DHT22;28397;44.552;-0.848;2023-07-31T02:30:17;15.90;99.90
42743;DHT22;28397;44.552;-0.848;2023-07-31T02:32:43;16.10;99.90
42743;DHT22;28397;44.552;-0.848;2023-07-31T02:35:08;16.20;99.90
42743;DHT22;28397;44.552;-0.848;2023-07-31T02:37:34;16.30;99.90
42743;DHT22;28397;44.552;-0.848;2023-07-31T02:40:00;16.40;99.90
42743;DHT22;28397;44.552;-0.848;2023-07-31T02:42:25;16.60;99.90
42743;DHT22;28397;44.552;-0.848;2023-07-31T02:44:51;16.50;99.90
42743;DHT22;28397;44.552;-0.848;2023-07-31T02:47:21;16.60;99.90
42743;DHT22;28397;44.552;-0.848;2023-07-31T02:49:47;16.50;99.90
42743;DHT22;28397;44.552;-0.848;2023-07-31T02:52:13;16.50;99.90
42743;DHT22;28397;44.552;-0.848;2023-07-31T02:54:38;16.50;99.90
42743;DHT22;28397;44.552;-0.848;2023-07-31T02:57:04;16.40;99.90
42743;DHT22;28397;44.552;-0.848;2023-07-31T02:59:30;16.20;99.90
42743;DHT22;28397;44.552;-0.848;2023-07-31T03:01:55;15.90;99.90
42743;DHT22;28397;44.552;-0.848;2023-07-31T03:04:21;15.80;99.90
42743;DHT22;28397;44.552;-0.848;2023-07-31T03:06:47;15.70;99.90
42743;DHT22;28397;44.552;-0.848;2023-07-31T03:09:12;15.70;99.90
42743;DHT22;28397;44.552;-0.848;2023-07-31T03:11:38;15.60;99.90
42743;DHT22;28397;44.552;-0.848;2023-07-31T03:14:04;15.60;99.90
42743;DHT22;28397;44.552;-0.848;2023-07-31T03:16:29;15.60;99.90
42743;DHT22;28397;44.552;-0.848;2023-07-31T03:18:55;15.50;99.90
42743;DHT22;28397;44.552;-0.848;2023-07-31T03:21:21;15.50;99.90
42743;DHT22;28397;44.552;-0.848;2023-07-31T03:23:46;15.40;99.90
42743;DHT22;28397;44.552;-0.848;2023-07-31T03:26:12;15.50;99.90
42743;DHT22;28397;44.552;-0.848;2023-07-31T03:28:38;15.40;99.90
42743;DHT22;28397;44.552;-0.848;2023-07-31T03:31:03;15.30;99.90
42743;DHT22;28397;44.552;-0.848;2023-07-31T03:33:29;15.40;99.90
42743;DHT22;28397;44.552;-0.848;2023-07-31T03:35:55;15.30;99.90
42743;DHT22;28397;44.552;-0.848;2023-07-31T03:38:20;15.30;99.90
42743;DHT22;28397;44.552;-0.848;2023-07-31T03:40:46;15.30;99.90
42743;DHT22;28397;44.552;-0.848;2023-07-31T03:43:12;15.30;99.90
42743;DHT22;28397;44.552;-0.848;2023-07-31T03:45:38;15.50;99.90
42743;DHT22;28397;44.552;-0.848;2023-07-31T03:48:04;15.70;99.90
42743;DHT22;28397;44.552;-0.848;2023-07-31T03:50:30;15.90;99.90
42743;DHT22;28397;44.552;-0.848;2023-07-31T03:52:55;16.10;99.90
42743;DHT22;28397;44.552;-0.848;2023-07-31T03:55:21;16.10;99.90
42743;DHT22;28397;44.552;-0.848;2023-07-31T03:57:49;16.10;99.90
42743;DHT22;28397;44.552;-0.848;2023-07-31T04:00:15;16.10;99.90
42743;DHT22;28397;44.552;-0.848;2023-07-31T04:02:41;16.10;99.90
42743;DHT22;28397;44.552;-0.848;2023-07-31T04:05:07;16.20;99.90
42743;DHT22;28397;44.552;-0.848;2023-07-31T04:07:33;16.10;99.90
42743;DHT22;28397;44.552;-0.848;2023-07-31T04:09:59;16.10;99.90
42743;DHT22;28397;44.552;-0.848;2023-07-31T04:12:25;15.90;99.90
42743;DHT22;28397;44.552;-0.848;2023-07-31T04:14:51;15.70;99.90
42743;DHT22;28397;44.552;-0.848;2023-07-31T04:17:19;15.60;99.90
42743;DHT22;28397;44.552;-0.848;2023-07-31T04:19:45;15.50;99.90
42743;DHT22;28397;44.552;-0.848;2023-07-31T04:22:11;15.40;99.90
42743;DHT22;28397;44.552;-0.848;2023-07-31T04:24:36;15.30;99.90
42743;DHT22;28397;44.552;-0.848;2023-07-31T04:27:02;15.30;99.90
42743;DHT22;28397;44.552;-0.848;2023-07-31T04:29:28;15.20;99.90
42743;DHT22;28397;44.552;-0.848;2023-07-31T04:31:54;15.20;99.90
42743;DHT22;28397;44.552;-0.848;2023-07-31T04:34:19;15.20;99.90
42743;DHT22;28397;44.552;-0.848;2023-07-31T04:36:45;15.10;99.90
42743;DHT22;28397;44.552;-0.848;2023-07-31T04:39:11;15.00;99.90
42743;DHT22;28397;44.552;-0.848;2023-07-31T04:41:36;15.00;99.90
42743;DHT22;28397;44.552;-0.848;2023-07-31T04:44:02;15.00;99.90
42743;DHT22;28397;44.552;-0.848;2023-07-31T04:46:29;15.00;99.90
42743;DHT22;28397;44.552;-0.848;2023-07-31T04:48:55;15.00;99.90
42743;DHT22;28397;44.552;-0.848;2023-07-31T04:51:20;15.00;99.90
42743;DHT22;28397;44.552;-0.848;2023-07-31T04:53:46;15.00;99.90
42743;DHT22;28397;44.552;-0.848;2023-07-31T04:56:12;15.00;99.90
42743;DHT22;28397;44.552;-0.848;2023-07-31T04:58:38;15.10;99.90
42743;DHT22;28397;44.552;-0.848;2023-07-31T05:01:03;15.30;99.90
42743;DHT22;28397;44.552;-0.848;2023-07-31T05:03:29;15.60;99.90
42743;DHT22;28397;44.552;-0.848;2023-07-31T05:05:55;15.70;99.90
42743;DHT22;28397;44.552;-0.848;2023-07-31T05:08:20;15.80;99.90
42743;DHT22;28397;44.552;-0.848;2023-07-31T05:10:46;15.90;99.90
42743;DHT22;28397;44.552;-0.848;2023-07-31T05:13:12;16.00;99.90
42743;DHT22;28397;44.552;-0.848;2023-07-31T05:15:38;15.90;99.90
42743;DHT22;28397;44.552;-0.848;2023-07-31T05:18:04;15.90;99.90
42743;DHT22;28397;44.552;-0.848;2023-07-31T05:20:29;16.00;99.90
42743;DHT22;28397;44.552;-0.848;2023-07-31T05:22:55;16.10;99.90
42743;DHT22;28397;44.552;-0.848;2023-07-31T05:25:21;16.00;99.90
42743;DHT22;28397;44.552;-0.848;2023-07-31T05:27:46;15.70;99.90
42743;DHT22;28397;44.552;-0.848;2023-07-31T05:30:12;15.60;99.90
42743;DHT22;28397;44.552;-0.848;2023-07-31T05:32:37;15.40;99.90
42743;DHT22;28397;44.552;-0.848;2023-07-31T05:35:03;15.30;99.90
42743;DHT22;28397;44.552;-0.848;2023-07-31T05:37:29;15.20;99.90
42743;DHT22;28397;44.552;-0.848;2023-07-31T05:39:55;15.20;99.90
42743;DHT22;28397;44.552;-0.848;2023-07-31T05:42:21;15.20;99.90
42743;DHT22;28397;44.552;-0.848;2023-07-31T05:44:46;15.10;99.90
42743;DHT22;28397;44.552;-0.848;2023-07-31T05:47:12;15.10;99.90
42743;DHT22;28397;44.552;-0.848;2023-07-31T05:49:38;15.20;99.90
42743;DHT22;28397;44.552;-0.848;2023-07-31T05:52:04;15.20;99.90
42743;DHT22;28397;44.552;-0.848;2023-07-31T05:54:30;15.30;99.90
42743;DHT22;28397;44.552;-0.848;2023-07-31T05:56:55;15.30;99.90
42743;DHT22;28397;44.552;-0.848;2023-07-31T05:59:21;15.40;99.90
42743;DHT22;28397;44.552;-0.848;2023-07-31T06:01:46;15.50;99.90
42743;DHT22;28397;44.552;-0.848;2023-07-31T06:04:12;15.60;99.90
42743;DHT22;28397;44.552;-0.848;2023-07-31T06:06:38;15.70;99.90
42743;DHT22;28397;44.552;-0.848;2023-07-31T06:09:03;15.80;99.90
42743;DHT22;28397;44.552;-0.848;2023-07-31T06:11:29;15.90;99.90
42743;DHT22;28397;44.552;-0.848;2023-07-31T06:13:55;15.90;99.90
42743;DHT22;28397;44.552;-0.848;2023-07-31T06:16:21;16.00;99.90
42743;DHT22;28397;44.552;-0.848;2023-07-31T06:18:47;16.20;99.90
42743;DHT22;28397;44.552;-0.848;2023-07-31T06:21:13;16.40;99.90
42743;DHT22;28397;44.552;-0.848;2023-07-31T06:23:38;16.60;99.90
42743;DHT22;28397;44.552;-0.848;2023-07-31T06:26:04;16.80;99.90
42743;DHT22;28397;44.552;-0.848;2023-07-31T06:28:31;16.80;99.90
42743;DHT22;28397;44.552;-0.848;2023-07-31T06:30:57;17.00;99.90
42743;DHT22;28397;44.552;-0.848;2023-07-31T06:33:23;17.00;99.90
42743;DHT22;28397;44.552;-0.848;2023-07-31T06:35:49;17.00;99.90
42743;DHT22;28397;44.552;-0.848;2023-07-31T06:38:14;17.20;99.90
42743;DHT22;28397;44.552;-0.848;2023-07-31T06:40:40;17.20;99.90
42743;DHT22;28397;44.552;-0.848;2023-07-31T06:43:06;17.30;99.90
42743;DHT22;28397;44.552;-0.848;2023-07-31T06:45:35;17.30;99.90
42743;DHT22;28397;44.552;-0.848;2023-07-31T06:48:01;17.30;99.90
42743;DHT22;28397;44.552;-0.848;2023-07-31T06:50:28;17.30;99.90
42743;DHT22;28397;44.552;-0.848;2023-07-31T06:52:54;17.30;99.90
42743;DHT22;28397;44.552;-0.848;2023-07-31T06:55:21;17.30;99.90
42743;DHT22;28397;44.552;-0.848;2023-07-31T06:57:48;17.30;99.90
42743;DHT22;28397;44.552;-0.848;2023-07-31T07:00:14;17.40;99.90
42743;DHT22;28397;44.552;-0.848;2023-07-31T07:02:40;17.40;99.90
42743;DHT22;28397;44.552;-0.848;2023-07-31T07:05:07;17.50;99.90
42743;DHT22;28397;44.552;-0.848;2023-07-31T07:07:33;17.60;99.90
42743;DHT22;28397;44.552;-0.848;2023-07-31T07:09:58;17.60;99.90
42743;DHT22;28397;44.552;-0.848;2023-07-31T07:12:31;17.70;99.90
42743;DHT22;28397;44.552;-0.848;2023-07-31T07:14:57;17.70;99.90
42743;DHT22;28397;44.552;-0.848;2023-07-31T07:17:23;17.70;99.90
42743;DHT22;28397;44.552;-0.848;2023-07-31T07:19:49;17.80;99.90
42743;DHT22;28397;44.552;-0.848;2023-07-31T07:22:15;17.90;99.90
42743;DHT22;28397;44.552;-0.848;2023-07-31T07:24:41;18.00;99.90
42743;DHT22;28397;44.552;-0.848;2023-07-31T07:27:07;18.10;99.90
42743;DHT22;28397;44.552;-0.848;2023-07-31T07:29:34;18.10;99.90
42743;DHT22;28397;44.552;-0.848;2023-07-31T07:32:00;18.20;99.90
42743;DHT22;28397;44.552;-0.848;2023-07-31T07:34:27;18.30;99.90
42743;DHT22;28397;44.552;-0.848;2023-07-31T07:36:54;18.50;99.90
42743;DHT22;28397;44.552;-0.848;2023-07-31T07:39:19;18.60;99.90
42743;DHT22;28397;44.552;-0.848;2023-07-31T07:41:46;18.70;99.90
42743;DHT22;28397;44.552;-0.848;2023-07-31T07:44:12;19.00;99.90
42743;DHT22;28397;44.552;-0.848;2023-07-31T07:46:38;19.10;99.90
42743;DHT22;28397;44.552;-0.848;2023-07-31T07:49:04;19.30;99.90
42743;DHT22;28397;44.552;-0.848;2023-07-31T07:51:30;19.40;99.90
42743;DHT22;28397;44.552;-0.848;2023-07-31T07:54:00;19.50;99.90
42743;DHT22;28397;44.552;-0.848;2023-07-31T07:56:26;19.60;99.90
42743;DHT22;28397;44.552;-0.848;2023-07-31T07:58:52;19.70;99.90
42743;DHT22;28397;44.552;-0.848;2023-07-31T08:01:18;19.80;99.90
42743;DHT22;28397;44.552;-0.848;2023-07-31T08:03:44;19.90;99.90
42743;DHT22;28397;44.552;-0.848;2023-07-31T08:06:10;19.80;99.90
42743;DHT22;28397;44.552;-0.848;2023-07-31T08:08:36;19.80;99.90
42743;DHT22;28397;44.552;-0.848;2023-07-31T08:11:02;19.80;99.90
42743;DHT22;28397;44.552;-0.848;2023-07-31T08:13:27;19.80;99.90
42743;DHT22;28397;44.552;-0.848;2023-07-31T08:15:53;19.80;99.90
42743;DHT22;28397;44.552;-0.848;2023-07-31T08:18:19;20.00;99.90
42743;DHT22;28397;44.552;-0.848;2023-07-31T08:20:45;20.00;99.90
42743;DHT22;28397;44.552;-0.848;2023-07-31T08:23:11;20.20;99.90
42743;DHT22;28397;44.552;-0.848;2023-07-31T08:25:37;20.20;99.90
42743;DHT22;28397;44.552;-0.848;2023-07-31T08:28:03;20.30;99.90
42743;DHT22;28397;44.552;-0.848;2023-07-31T08:30:29;20.40;99.90
42743;DHT22;28397;44.552;-0.848;2023-07-31T08:32:55;20.50;99.90
42743;DHT22;28397;44.552;-0.848;2023-07-31T08:35:21;20.60;99.90
42743;DHT22;28397;44.552;-0.848;2023-07-31T08:37:47;20.70;99.90
42743;DHT22;28397;44.552;-0.848;2023-07-31T08:40:12;20.80;99.90
42743;DHT22;28397;44.552;-0.848;2023-07-31T08:42:49;20.70;99.90
42743;DHT22;28397;44.552;-0.848;2023-07-31T08:45:16;20.90;99.90
42743;DHT22;28397;44.552;-0.848;2023-07-31T08:47:47;21.10;99.90
42743;DHT22;28397;44.552;-0.848;2023-07-31T08:50:14;21.20;99.90
42743;DHT22;28397;44.552;-0.848;2023-07-31T08:52:40;21.30;99.90
42743;DHT22;28397;44.552;-0.848;2023-07-31T08:55:07;21.30;99.90
42743;DHT22;28397;44.552;-0.848;2023-07-31T08:57:35;21.40;99.90
42743;DHT22;28397;44.552;-0.848;2023-07-31T09:00:03;21.70;99.90
42743;DHT22;28397;44.552;-0.848;2023-07-31T09:02:35;21.70;99.90
42743;DHT22;28397;44.552;-0.848;2023-07-31T09:05:02;21.60;99.90
42743;DHT22;28397;44.552;-0.848;2023-07-31T09:07:29;21.70;99.90
42743;DHT22;28397;44.552;-0.848;2023-07-31T09:09:57;21.70;99.90
42743;DHT22;28397;44.552;-0.848;2023-07-31T09:12:23;21.90;99.90
42743;DHT22;28397;44.552;-0.848;2023-07-31T09:14:49;22.00;99.90
42743;DHT22;28397;44.552;-0.848;2023-07-31T09:17:15;21.90;99.90
42743;DHT22;28397;44.552;-0.848;2023-07-31T09:19:41;22.00;99.90
42743;DHT22;28397;44.552;-0.848;2023-07-31T09:22:07;21.90;99.90
42743;DHT22;28397;44.552;-0.848;2023-07-31T09:24:34;21.80;99.90
42743;DHT22;28397;44.552;-0.848;2023-07-31T09:27:01;21.60;99.90
42743;DHT22;28397;44.552;-0.848;2023-07-31T09:29:28;21.70;99.90
42743;DHT22;28397;44.552;-0.848;2023-07-31T09:31:55;21.70;99.90
42743;DHT22;28397;44.552;-0.848;2023-07-31T09:34:36;21.80;99.90
42743;DHT22;28397;44.552;-0.848;2023-07-31T09:37:04;21.80;99.90
42743;DHT22;28397;44.552;-0.848;2023-07-31T09:39:30;21.80;99.90
42743;DHT22;28397;44.552;-0.848;2023-07-31T09:41:56;21.90;99.90
42743;DHT22;28397;44.552;-0.848;2023-07-31T09:44:37;22.00;99.90
42743;DHT22;28397;44.552;-0.848;2023-07-31T09:47:05;21.90;99.90
42743;DHT22;28397;44.552;-0.848;2023-07-31T09:49:30;21.80;99.90
42743;DHT22;28397;44.552;-0.848;2023-07-31T09:51:56;21.80;99.90
42743;DHT22;28397;44.552;-0.848;2023-07-31T09:54:22;22.00;99.90
42743;DHT22;28397;44.552;-0.848;2023-07-31T09:56:48;22.20;99.90
42743;DHT22;28397;44.552;-0.848;2023-07-31T09:59:16;22.20;99.90
42743;DHT22;28397;44.552;-0.848;2023-07-31T10:01:43;22.30;99.90
42743;DHT22;28397;44.552;-0.848;2023-07-31T10:04:10;22.40;99.90
42743;DHT22;28397;44.552;-0.848;2023-07-31T10:06:37;22.30;99.90
42743;DHT22;28397;44.552;-0.848;2023-07-31T10:09:09;22.30;99.90
42743;DHT22;28397;44.552;-0.848;2023-07-31T10:11:53;22.50;99.90
42743;DHT22;28397;44.552;-0.848;2023-07-31T10:14:21;22.60;99.90
42743;DHT22;28397;44.552;-0.848;2023-07-31T10:16:49;22.80;99.90
42743;DHT22;28397;44.552;-0.848;2023-07-31T10:19:16;23.00;99.90
42743;DHT22;28397;44.552;-0.848;2023-07-31T10:21:43;23.10;99.90
42743;DHT22;28397;44.552;-0.848;2023-07-31T10:24:09;23.20;99.90
42743;DHT22;28397;44.552;-0.848;2023-07-31T10:26:35;23.30;99.90
42743;DHT22;28397;44.552;-0.848;2023-07-31T10:29:03;23.50;99.90
42743;DHT22;28397;44.552;-0.848;2023-07-31T10:31:29;23.70;99.90
42743;DHT22;28397;44.552;-0.848;2023-07-31T10:33:57;23.50;99.90
42743;DHT22;28397;44.552;-0.848;2023-07-31T10:36:24;23.60;99.90
42743;DHT22;28397;44.552;-0.848;2023-07-31T10:38:50;23.50;99.90
42743;DHT22;28397;44.552;-0.848;2023-07-31T10:41:16;23.60;99.90
42743;DHT22;28397;44.552;-0.848;2023-07-31T10:43:42;23.70;99.90
42743;DHT22;28397;44.552;-0.848;2023-07-31T10:46:12;23.70;99.90
42743;DHT22;28397;44.552;-0.848;2023-07-31T10:48:39;23.70;99.90
42743;DHT22;28397;44.552;-0.848;2023-07-31T10:51:11;23.60;99.90
42743;DHT22;28397;44.552;-0.848;2023-07-31T10:53:41;23.50;99.90
42743;DHT22;28397;44.552;-0.848;2023-07-31T10:56:10;23.50;99.90
42743;DHT22;28397;44.552;-0.848;2023-07-31T10:58:44;23.40;99.90
42743;DHT22;28397;44.552;-0.848;2023-07-31T11:01:11;23.50;99.90
42743;DHT22;28397;44.552;-0.848;2023-07-31T11:03:48;23.50;99.90
42743;DHT22;28397;44.552;-0.848;2023-07-31T11:06:15;23.60;99.90
42743;DHT22;28397;44.552;-0.848;2023-07-31T11:08:43;23.70;99.90
42743;DHT22;28397;44.552;-0.848;2023-07-31T11:11:12;23.70;99.90
42743;DHT22;28397;44.552;-0.848;2023-07-31T11:13:50;23.50;99.90
42743;DHT22;28397;44.552;-0.848;2023-07-31T11:16:19;23.40;99.90
42743;DHT22;28397;44.552;-0.848;2023-07-31T11:18:46;23.50;99.90
42743;DHT22;28397;44.552;-0.848;2023-07-31T11:21:22;23.70;99.90
42743;DHT22;28397;44.552;-0.848;2023-07-31T11:23:55;23.80;99.90
42743;DHT22;28397;44.552;-0.848;2023-07-31T11:26:21;23.90;99.90
42743;DHT22;28397;44.552;-0.848;2023-07-31T11:28:49;24.00;99.90
42743;DHT22;28397;44.552;-0.848;2023-07-31T11:31:15;24.20;99.90
42743;DHT22;28397;44.552;-0.848;2023-07-31T11:33:40;24.40;99.90
42743;DHT22;28397;44.552;-0.848;2023-07-31T11:36:15;24.50;99.90
42743;DHT22;28397;44.552;-0.848;2023-07-31T11:38:41;24.60;99.90
42743;DHT22;28397;44.552;-0.848;2023-07-31T11:41:07;24.70;99.90
42743;DHT22;28397;44.552;-0.848;2023-07-31T11:43:33;24.60;99.90
42743;DHT22;28397;44.552;-0.848;2023-07-31T11:46:00;24.70;99.90
42743;DHT22;28397;44.552;-0.848;2023-07-31T11:48:30;24.60;99.90
42743;DHT22;28397;44.552;-0.848;2023-07-31T11:51:03;24.70;99.90
42743;DHT22;28397;44.552;-0.848;2023-07-31T11:53:33;24.80;99.90
42743;DHT22;28397;44.552;-0.848;2023-07-31T11:56:01;24.80;99.90
42743;DHT22;28397;44.552;-0.848;2023-07-31T11:58:29;24.90;99.90
42743;DHT22;28397;44.552;-0.848;2023-07-31T12:00:55;25.00;99.90
42743;DHT22;28397;44.552;-0.848;2023-07-31T12:03:22;25.10;99.90
42743;DHT22;28397;44.552;-0.848;2023-07-31T12:05:48;24.90;99.90
42743;DHT22;28397;44.552;-0.848;2023-07-31T12:08:14;24.80;99.90
42743;DHT22;28397;44.552;-0.848;2023-07-31T12:10:40;24.80;99.90
42743;DHT22;28397;44.552;-0.848;2023-07-31T12:13:21;24.60;99.90
42743;DHT22;28397;44.552;-0.848;2023-07-31T12:15:48;24.50;99.90
42743;DHT22;28397;44.552;-0.848;2023-07-31T12:18:15;24.70;99.90
42743;DHT22;28397;44.552;-0.848;2023-07-31T12:20:45;24.70;99.90
42743;DHT22;28397;44.552;-0.848;2023-07-31T12:23:26;24.80;99.90
42743;DHT22;28397;44.552;-0.848;2023-07-31T12:26:11;24.80;99.90
42743;DHT22;28397;44.552;-0.848;2023-07-31T12:31:04;25.00;99.90
42743;DHT22;28397;44.552;-0.848;2023-07-31T12:33:37;25.00;99.90
42743;DHT22;28397;44.552;-0.848;2023-07-31T12:36:07;25.00;99.90
42743;DHT22;28397;44.552;-0.848;2023-07-31T12:38:33;24.80;99.90
42743;DHT22;28397;44.552;-0.848;2023-07-31T12:40:58;24.50;99.90
42743;DHT22;28397;44.552;-0.848;2023-07-31T12:43:24;24.50;99.90
42743;DHT22;28397;44.552;-0.848;2023-07-31T12:45:50;24.60;99.90
42743;DHT22;28397;44.552;-0.848;2023-07-31T12:48:16;24.80;99.90
42743;DHT22;28397;44.552;-0.848;2023-07-31T12:50:42;25.00;99.90
42743;DHT22;28397;44.552;-0.848;2023-07-31T12:53:07;25.10;99.90
42743;DHT22;28397;44.552;-0.848;2023-07-31T12:55:34;25.40;99.90
42743;DHT22;28397;44.552;-0.848;2023-07-31T12:58:00;25.60;99.90
42743;DHT22;28397;44.552;-0.848;2023-07-31T13:00:27;25.40;99.90
42743;DHT22;28397;44.552;-0.848;2023-07-31T13:02:53;25.40;99.90
42743;DHT22;28397;44.552;-0.848;2023-07-31T13:05:18;25.50;99.90
42743;DHT22;28397;44.552;-0.848;2023-07-31T13:07:46;25.60;99.90
42743;DHT22;28397;44.552;-0.848;2023-07-31T13:10:11;25.50;99.90
42743;DHT22;28397;44.552;-0.848;2023-07-31T13:12:37;25.70;99.90
42743;DHT22;28397;44.552;-0.848;2023-07-31T13:15:06;25.80;99.90
42743;DHT22;28397;44.552;-0.848;2023-07-31T13:17:32;25.90;99.90
42743;DHT22;28397;44.552;-0.848;2023-07-31T13:19:58;26.00;99.90
42743;DHT22;28397;44.552;-0.848;2023-07-31T13:22:24;25.90;99.90
42743;DHT22;28397;44.552;-0.848;2023-07-31T13:24:50;26.10;99.90
42743;DHT22;28397;44.552;-0.848;2023-07-31T13:27:16;26.00;99.90
42743;DHT22;28397;44.552;-0.848;2023-07-31T13:29:50;25.70;99.90
42743;DHT22;28397;44.552;-0.848;2023-07-31T13:32:16;25.50;99.90
42743;DHT22;28397;44.552;-0.848;2023-07-31T13:34:42;25.70;99.90
42743;DHT22;28397;44.552;-0.848;2023-07-31T13:37:08;25.70;99.90
42743;DHT22;28397;44.552;-0.848;2023-07-31T13:39:34;25.80;99.90
42743;DHT22;28397;44.552;-0.848;2023-07-31T13:42:01;25.60;99.90
42743;DHT22;28397;44.552;-0.848;2023-07-31T13:44:27;25.40;99.90
42743;DHT22;28397;44.552;-0.848;2023-07-31T13:46:53;25.60;99.90
42743;DHT22;28397;44.552;-0.848;2023-07-31T13:49:18;25.70;99.90
42743;DHT22;28397;44.552;-0.848;2023-07-31T13:51:44;25.80;99.90
42743;DHT22;28397;44.552;-0.848;2023-07-31T13:54:09;26.00;99.90
42743;DHT22;28397;44.552;-0.848;2023-07-31T13:56:37;26.00;99.90
42743;DHT22;28397;44.552;-0.848;2023-07-31T13:59:03;26.20;99.90
42743;DHT22;28397;44.552;-0.848;2023-07-31T14:01:29;26.50;99.90
42743;DHT22;28397;44.552;-0.848;2023-07-31T14:03:55;26.00;99.90
42743;DHT22;28397;44.552;-0.848;2023-07-31T14:06:21;26.00;99.90
42743;DHT22;28397;44.552;-0.848;2023-07-31T14:08:47;26.10;99.90
42743;DHT22;28397;44.552;-0.848;2023-07-31T14:11:12;26.10;99.90
42743;DHT22;28397;44.552;-0.848;2023-07-31T14:13:38;26.30;99.90
42743;DHT22;28397;44.552;-0.848;2023-07-31T14:16:04;26.40;99.90
42743;DHT22;28397;44.552;-0.848;2023-07-31T14:18:29;26.50;99.90
42743;DHT22;28397;44.552;-0.848;2023-07-31T14:20:55;26.50;99.90
42743;DHT22;28397;44.552;-0.848;2023-07-31T14:23:21;27.00;99.90
42743;DHT22;28397;44.552;-0.848;2023-07-31T14:25:47;26.70;99.90
42743;DHT22;28397;44.552;-0.848;2023-07-31T14:28:13;26.90;99.90
42743;DHT22;28397;44.552;-0.848;2023-07-31T14:30:39;26.90;99.90
42743;DHT22;28397;44.552;-0.848;2023-07-31T14:33:04;27.20;99.90
42743;DHT22;28397;44.552;-0.848;2023-07-31T14:35:30;27.40;99.90
42743;DHT22;28397;44.552;-0.848;2023-07-31T14:37:56;27.40;99.90
42743;DHT22;28397;44.552;-0.848;2023-07-31T14:40:21;27.30;99.90
42743;DHT22;28397;44.552;-0.848;2023-07-31T14:42:47;27.40;99.90
42743;DHT22;28397;44.552;-0.848;2023-07-31T14:45:13;27.10;99.90
42743;DHT22;28397;44.552;-0.848;2023-07-31T14:47:38;26.60;99.90
42743;DHT22;28397;44.552;-0.848;2023-07-31T14:50:04;26.90;99.90
42743;DHT22;28397;44.552;-0.848;2023-07-31T14:52:30;27.20;99.90
42743;DHT22;28397;44.552;-0.848;2023-07-31T14:54:56;27.20;99.90
42743;DHT22;28397;44.552;-0.848;2023-07-31T14:57:22;27.10;99.90
42743;DHT22;28397;44.552;-0.848;2023-07-31T14:59:47;27.10;99.90
42743;DHT22;28397;44.552;-0.848;2023-07-31T15:02:15;27.10;99.90
42743;DHT22;28397;44.552;-0.848;2023-07-31T15:04:41;27.20;99.90
42743;DHT22;28397;44.552;-0.848;2023-07-31T15:07:07;27.60;99.90
42743;DHT22;28397;44.552;-0.848;2023-07-31T15:09:32;27.30;99.90
42743;DHT22;28397;44.552;-0.848;2023-07-31T15:11:58;27.20;99.90
42743;DHT22;28397;44.552;-0.848;2023-07-31T15:14:24;27.40;99.90
42743;DHT22;28397;44.552;-0.848;2023-07-31T15:16:50;27.50;99.90
42743;DHT22;28397;44.552;-0.848;2023-07-31T15:19:16;27.30;99.90